sensor_id;sensor_type;location;lat;lon;timestamp;temperature;humidity
20560;DHT22;10438;51.454;6.718;2023-02-15T00:01:57;5.70;99.90
20560;DHT22;10438;51.454;6.718;2023-02-15T00:04:24;5.70;99.90
20560;DHT22;10438;51.454;6.718;2023-02-15T00:06:50;5.70;99.90
20560;DHT22;10438;51.454;6.718;2023-02-15T00:09:16;5.60;99.90
20560;DHT22;10438;51.454;6.718;2023-02-15T00:11:42;5.60;99.90
20560;DHT22;10438;51.454;6.718;2023-02-15T00:14:21;5.60;99.90
20560;DHT22;10438;51.454;6.718;2023-02-15T00:16:48;5.60;99.90
20560;DHT22;10438;51.454;6.718;2023-02-15T00:19:15;5.50;99.90
20560;DHT22;10438;51.454;6.718;2023-02-15T00:21:41;5.50;99.90
20560;DHT22;10438;51.454;6.718;2023-02-15T00:24:08;5.50;99.90
20560;DHT22;10438;51.454;6.718;2023-02-15T00:26:35;5.60;99.90
20560;DHT22;10438;51.454;6.718;2023-02-15T00:29:00;5.50;99.90
20560;DHT22;10438;51.454;6.718;2023-02-15T00:31:28;5.50;99.90
20560;DHT22;10438;51.454;6.718;2023-02-15T00:34:00;5.50;99.90
20560;DHT22;10438;51.454;6.718;2023-02-15T00:36:25;5.50;99.90
20560;DHT22;10438;51.454;6.718;2023-02-15T00:38:51;5.50;99.90
20560;DHT22;10438;51.454;6.718;2023-02-15T00:41:16;5.50;99.90
20560;DHT22;10438;51.454;6.718;2023-02-15T00:43:42;5.40;99.90
20560;DHT22;10438;51.454;6.718;2023-02-15T00:46:07;5.40;99.90
20560;DHT22;10438;51.454;6.718;2023-02-15T00:48:33;5.40;99.90
20560;DHT22;10438;51.454;6.718;2023-02-15T00:50:59;5.40;99.90
20560;DHT22;10438;51.454;6.718;2023-02-15T00:53:26;5.40;99.90
20560;DHT22;10438;51.454;6.718;2023-02-15T00:55:53;5.30;99.90
20560;DHT22;10438;51.454;6.718;2023-02-15T00:58:18;5.30;99.90
20560;DHT22;10438;51.454;6.718;2023-02-15T01:00:46;5.30;99.90
20560;DHT22;10438;51.454;6.718;2023-02-15T01:03:13;5.20;99.90
20560;DHT22;10438;51.454;6.718;2023-02-15T01:05:39;5.20;99.90
20560;DHT22;10438;51.454;6.718;2023-02-15T01:08:04;5.20;99.90
20560;DHT22;10438;51.454;6.718;2023-02-15T01:10:30;5.20;99.90
20560;DHT22;10438;51.454;6.718;2023-02-15T01:12:56;5.10;99.90
20560;DHT22;10438;51.454;6.718;2023-02-15T01:15:22;5.10;99.90
20560;DHT22;10438;51.454;6.718;2023-02-15T01:17:49;5.10;99.90
20560;DHT22;10438;51.454;6.718;2023-02-15T01:20:20;5.00;99.90
20560;DHT22;10438;51.454;6.718;2023-02-15T01:22:46;5.10;99.90
20560;DHT22;10438;51.454;6.718;2023-02-15T01:25:12;5.00;99.90
20560;DHT22;10438;51.454;6.718;2023-02-15T01:27:37;5.00;99.90
20560;DHT22;10438;51.454;6.718;2023-02-15T01:30:03;5.00;99.90
20560;DHT22;10438;51.454;6.718;2023-02-15T01:32:30;5.00;99.90
20560;DHT22;10438;51.454;6.718;2023-02-15T01:34:56;5.00;99.90
20560;DHT22;10438;51.454;6.718;2023-02-15T01:37:22;4.90;99.90
20560;DHT22;10438;51.454;6.718;2023-02-15T01:39:47;4.90;99.90
20560;DHT22;10438;51.454;6.718;2023-02-15T01:42:13;4.90;99.90
20560;DHT22;10438;51.454;6.718;2023-02-15T01:47:16;4.90;99.90
20560;DHT22;10438;51.454;6.718;2023-02-15T01:49:45;4.80;99.90
20560;DHT22;10438;51.454;6.718;2023-02-15T01:52:14;4.80;99.90
20560;DHT22;10438;51.454;6.718;2023-02-15T01:54:43;4.80;99.90
20560;DHT22;10438;51.454;6.718;2023-02-15T01:57:16;4.80;99.90
20560;DHT22;10438;51.454;6.718;2023-02-15T01:59:46;4.80;99.90
20560;DHT22;10438;51.454;6.718;2023-02-15T02:02:14;4.80;99.90
20560;DHT22;10438;51.454;6.718;2023-02-15T02:04:47;4.80;99.90
20560;DHT22;10438;51.454;6.718;2023-02-15T02:07:16;4.80;99.90
20560;DHT22;10438;51.454;6.718;2023-02-15T02:09:43;4.80;99.90
20560;DHT22;10438;51.454;6.718;2023-02-15T02:12:09;4.80;99.90
20560;DHT22;10438;51.454;6.718;2023-02-15T02:14:36;4.80;99.90
20560;DHT22;10438;51.454;6.718;2023-02-15T02:17:22;4.80;99.90
20560;DHT22;10438;51.454;6.718;2023-02-15T02:20:29;4.80;99.90
20560;DHT22;10438;51.454;6.718;2023-02-15T02:23:21;4.70;99.90
20560;DHT22;10438;51.454;6.718;2023-02-15T02:34:33;4.60;99.90
20560;DHT22;10438;51.454;6.718;2023-02-15T02:37:28;4.50;99.90
20560;DHT22;10438;51.454;6.718;2023-02-15T02:42:54;4.50;99.90
20560;DHT22;10438;51.454;6.718;2023-02-15T02:45:26;4.50;99.90
20560;DHT22;10438;51.454;6.718;2023-02-15T02:48:00;4.50;99.90
20560;DHT22;10438;51.454;6.718;2023-02-15T02:50:30;4.50;99.90
20560;DHT22;10438;51.454;6.718;2023-02-15T02:52:58;4.50;99.90
20560;DHT22;10438;51.454;6.718;2023-02-15T02:55:43;4.50;99.90
20560;DHT22;10438;51.454;6.718;2023-02-15T02:58:24;4.50;99.90
20560;DHT22;10438;51.454;6.718;2023-02-15T03:01:05;4.50;99.90
20560;DHT22;10438;51.454;6.718;2023-02-15T03:03:52;4.40;99.90
20560;DHT22;10438;51.454;6.718;2023-02-15T03:06:33;4.40;99.90
20560;DHT22;10438;51.454;6.718;2023-02-15T03:09:06;4.40;99.90
20560;DHT22;10438;51.454;6.718;2023-02-15T03:11:43;4.40;99.90
20560;DHT22;10438;51.454;6.718;2023-02-15T03:14:10;4.40;99.90
20560;DHT22;10438;51.454;6.718;2023-02-15T03:16:38;4.40;99.90
20560;DHT22;10438;51.454;6.718;2023-02-15T03:19:15;4.40;99.90
20560;DHT22;10438;51.454;6.718;2023-02-15T03:21:47;4.40;99.90
20560;DHT22;10438;51.454;6.718;2023-02-15T03:24:19;4.30;99.90
20560;DHT22;10438;51.454;6.718;2023-02-15T03:26:48;4.30;99.90
20560;DHT22;10438;51.454;6.718;2023-02-15T03:29:15;4.30;99.90
20560;DHT22;10438;51.454;6.718;2023-02-15T03:31:45;4.30;99.90
20560;DHT22;10438;51.454;6.718;2023-02-15T03:34:13;4.30;99.90
20560;DHT22;10438;51.454;6.718;2023-02-15T03:36:52;4.30;99.90
20560;DHT22;10438;51.454;6.718;2023-02-15T03:39:30;4.30;99.90
20560;DHT22;10438;51.454;6.718;2023-02-15T03:42:16;4.30;99.90
20560;DHT22;10438;51.454;6.718;2023-02-15T03:45:02;4.30;99.90
20560;DHT22;10438;51.454;6.718;2023-02-15T03:47:35;4.30;99.90
20560;DHT22;10438;51.454;6.718;2023-02-15T03:50:15;4.30;99.90
20560;DHT22;10438;51.454;6.718;2023-02-15T03:53:03;4.30;99.90
20560;DHT22;10438;51.454;6.718;2023-02-15T03:55:30;4.30;99.90
20560;DHT22;10438;51.454;6.718;2023-02-15T03:57:56;4.30;99.90
20560;DHT22;10438;51.454;6.718;2023-02-15T04:00:45;4.30;99.90
20560;DHT22;10438;51.454;6.718;2023-02-15T04:03:39;4.30;99.90
20560;DHT22;10438;51.454;6.718;2023-02-15T04:06:06;4.30;99.90
20560;DHT22;10438;51.454;6.718;2023-02-15T04:08:31;4.30;99.90
20560;DHT22;10438;51.454;6.718;2023-02-15T04:11:15;4.20;99.90
20560;DHT22;10438;51.454;6.718;2023-02-15T04:13:41;4.20;99.90
20560;DHT22;10438;51.454;6.718;2023-02-15T04:16:07;4.20;99.90
20560;DHT22;10438;51.454;6.718;2023-02-15T04:18:34;4.10;99.90
20560;DHT22;10438;51.454;6.718;2023-02-15T04:21:20;4.10;99.90
20560;DHT22;10438;51.454;6.718;2023-02-15T04:24:04;4.20;99.90
20560;DHT22;10438;51.454;6.718;2023-02-15T04:26:48;4.10;99.90
20560;DHT22;10438;51.454;6.718;2023-02-15T04:29:15;4.10;99.90
20560;DHT22;10438;51.454;6.718;2023-02-15T04:31:41;4.00;99.90
20560;DHT22;10438;51.454;6.718;2023-02-15T04:34:06;4.00;99.90
20560;DHT22;10438;51.454;6.718;2023-02-15T04:36:32;4.00;99.90
20560;DHT22;10438;51.454;6.718;2023-02-15T04:38:57;4.00;99.90
20560;DHT22;10438;51.454;6.718;2023-02-15T04:41:23;4.00;99.90
20560;DHT22;10438;51.454;6.718;2023-02-15T04:43:48;3.90;99.90
20560;DHT22;10438;51.454;6.718;2023-02-15T04:46:14;3.90;99.90
20560;DHT22;10438;51.454;6.718;2023-02-15T04:48:39;3.90;99.90
20560;DHT22;10438;51.454;6.718;2023-02-15T04:51:08;3.90;99.90
20560;DHT22;10438;51.454;6.718;2023-02-15T04:53:34;3.90;99.90
20560;DHT22;10438;51.454;6.718;2023-02-15T04:56:01;3.90;99.90
20560;DHT22;10438;51.454;6.718;2023-02-15T04:58:26;3.80;99.90
20560;DHT22;10438;51.454;6.718;2023-02-15T05:00:55;3.90;99.90
20560;DHT22;10438;51.454;6.718;2023-02-15T05:03:21;3.80;99.90
20560;DHT22;10438;51.454;6.718;2023-02-15T05:05:46;3.80;99.90
20560;DHT22;10438;51.454;6.718;2023-02-15T05:08:12;3.80;99.90
20560;DHT22;10438;51.454;6.718;2023-02-15T05:10:37;3.80;99.90
20560;DHT22;10438;51.454;6.718;2023-02-15T05:13:03;3.80;99.90
20560;DHT22;10438;51.454;6.718;2023-02-15T05:15:29;3.80;99.90
20560;DHT22;10438;51.454;6.718;2023-02-15T05:17:54;3.70;99.90
20560;DHT22;10438;51.454;6.718;2023-02-15T05:20:20;3.70;99.90
20560;DHT22;10438;51.454;6.718;2023-02-15T05:22:45;3.70;99.90
20560;DHT22;10438;51.454;6.718;2023-02-15T05:25:11;3.70;99.90
20560;DHT22;10438;51.454;6.718;2023-02-15T05:27:55;3.70;99.90
20560;DHT22;10438;51.454;6.718;2023-02-15T05:30:39;3.60;99.90
20560;DHT22;10438;51.454;6.718;2023-02-15T05:33:06;3.60;99.90
20560;DHT22;10438;51.454;6.718;2023-02-15T05:35:32;3.60;99.90
20560;DHT22;10438;51.454;6.718;2023-02-15T05:37:57;3.60;99.90
20560;DHT22;10438;51.454;6.718;2023-02-15T05:40:23;3.60;99.90
20560;DHT22;10438;51.454;6.718;2023-02-15T05:42:49;3.60;99.90
20560;DHT22;10438;51.454;6.718;2023-02-15T05:45:14;3.50;99.90
20560;DHT22;10438;51.454;6.718;2023-02-15T05:47:41;3.50;99.90
20560;DHT22;10438;51.454;6.718;2023-02-15T05:50:07;3.50;99.90
20560;DHT22;10438;51.454;6.718;2023-02-15T05:52:33;3.50;99.90
20560;DHT22;10438;51.454;6.718;2023-02-15T05:54:59;3.50;99.90
20560;DHT22;10438;51.454;6.718;2023-02-15T05:57:26;3.50;99.90
20560;DHT22;10438;51.454;6.718;2023-02-15T05:59:51;3.40;99.90
20560;DHT22;10438;51.454;6.718;2023-02-15T06:02:17;3.50;99.90
20560;DHT22;10438;51.454;6.718;2023-02-15T06:04:43;3.40;99.90
20560;DHT22;10438;51.454;6.718;2023-02-15T06:07:08;3.40;99.90
20560;DHT22;10438;51.454;6.718;2023-02-15T06:09:34;3.40;99.90
20560;DHT22;10438;51.454;6.718;2023-02-15T06:11:59;3.40;99.90
20560;DHT22;10438;51.454;6.718;2023-02-15T06:14:25;3.40;99.90
20560;DHT22;10438;51.454;6.718;2023-02-15T06:16:50;3.40;99.90
20560;DHT22;10438;51.454;6.718;2023-02-15T06:19:16;3.40;99.90
20560;DHT22;10438;51.454;6.718;2023-02-15T06:21:43;3.40;99.90
20560;DHT22;10438;51.454;6.718;2023-02-15T06:24:09;3.40;99.90
20560;DHT22;10438;51.454;6.718;2023-02-15T06:26:34;3.40;99.90
20560;DHT22;10438;51.454;6.718;2023-02-15T06:29:00;3.40;99.90
20560;DHT22;10438;51.454;6.718;2023-02-15T06:31:25;3.40;99.90
20560;DHT22;10438;51.454;6.718;2023-02-15T06:33:51;3.40;99.90
20560;DHT22;10438;51.454;6.718;2023-02-15T06:36:17;3.40;99.90
20560;DHT22;10438;51.454;6.718;2023-02-15T06:38:42;3.40;99.90
20560;DHT22;10438;51.454;6.718;2023-02-15T06:41:08;3.40;99.90
20560;DHT22;10438;51.454;6.718;2023-02-15T06:43:33;3.40;99.90
20560;DHT22;10438;51.454;6.718;2023-02-15T06:46:00;3.40;99.90
20560;DHT22;10438;51.454;6.718;2023-02-15T06:48:25;3.40;99.90
20560;DHT22;10438;51.454;6.718;2023-02-15T06:50:51;3.50;99.90
20560;DHT22;10438;51.454;6.718;2023-02-15T06:53:17;3.50;99.90
20560;DHT22;10438;51.454;6.718;2023-02-15T06:55:42;3.50;99.90
20560;DHT22;10438;51.454;6.718;2023-02-15T06:58:08;3.60;99.90
20560;DHT22;10438;51.454;6.718;2023-02-15T07:00:33;3.60;99.90
20560;DHT22;10438;51.454;6.718;2023-02-15T07:03:02;3.60;99.90
20560;DHT22;10438;51.454;6.718;2023-02-15T07:05:28;3.60;99.90
20560;DHT22;10438;51.454;6.718;2023-02-15T07:08:00;3.70;99.90
20560;DHT22;10438;51.454;6.718;2023-02-15T07:10:26;3.70;99.90
20560;DHT22;10438;51.454;6.718;2023-02-15T07:12:52;3.70;99.90
20560;DHT22;10438;51.454;6.718;2023-02-15T07:15:19;3.70;99.90
20560;DHT22;10438;51.454;6.718;2023-02-15T07:17:46;3.70;99.90
20560;DHT22;10438;51.454;6.718;2023-02-15T07:20:22;3.70;99.90
20560;DHT22;10438;51.454;6.718;2023-02-15T07:22:49;3.70;99.90
20560;DHT22;10438;51.454;6.718;2023-02-15T07:25:15;3.70;99.90
20560;DHT22;10438;51.454;6.718;2023-02-15T07:27:41;3.70;99.90
20560;DHT22;10438;51.454;6.718;2023-02-15T07:30:09;3.70;99.90
20560;DHT22;10438;51.454;6.718;2023-02-15T07:32:35;3.70;99.90
20560;DHT22;10438;51.454;6.718;2023-02-15T07:35:01;3.70;99.90
20560;DHT22;10438;51.454;6.718;2023-02-15T07:37:27;3.70;99.90
20560;DHT22;10438;51.454;6.718;2023-02-15T07:39:53;3.70;99.90
20560;DHT22;10438;51.454;6.718;2023-02-15T07:42:18;3.70;99.90
20560;DHT22;10438;51.454;6.718;2023-02-15T07:44:46;3.80;99.90
20560;DHT22;10438;51.454;6.718;2023-02-15T07:47:11;3.70;99.90
20560;DHT22;10438;51.454;6.718;2023-02-15T07:49:37;3.80;99.90
20560;DHT22;10438;51.454;6.718;2023-02-15T07:52:03;3.80;99.90
20560;DHT22;10438;51.454;6.718;2023-02-15T07:54:29;3.80;99.90
20560;DHT22;10438;51.454;6.718;2023-02-15T07:56:54;3.80;99.90
20560;DHT22;10438;51.454;6.718;2023-02-15T07:59:21;3.80;99.90
20560;DHT22;10438;51.454;6.718;2023-02-15T08:01:47;3.90;99.90
20560;DHT22;10438;51.454;6.718;2023-02-15T08:04:12;3.90;99.90
20560;DHT22;10438;51.454;6.718;2023-02-15T08:06:38;3.90;99.90
20560;DHT22;10438;51.454;6.718;2023-02-15T08:09:05;4.00;99.90
20560;DHT22;10438;51.454;6.718;2023-02-15T08:11:34;4.00;99.90
20560;DHT22;10438;51.454;6.718;2023-02-15T08:14:13;4.00;99.90
20560;DHT22;10438;51.454;6.718;2023-02-15T08:16:50;4.00;99.90
20560;DHT22;10438;51.454;6.718;2023-02-15T08:21:54;4.10;99.90
20560;DHT22;10438;51.454;6.718;2023-02-15T08:24:23;4.20;99.90
20560;DHT22;10438;51.454;6.718;2023-02-15T08:26:50;4.20;99.90
20560;DHT22;10438;51.454;6.718;2023-02-15T08:29:18;4.20;99.90
20560;DHT22;10438;51.454;6.718;2023-02-15T08:31:44;4.20;99.90
20560;DHT22;10438;51.454;6.718;2023-02-15T08:34:13;4.30;99.90
20560;DHT22;10438;51.454;6.718;2023-02-15T08:36:39;4.30;99.90
20560;DHT22;10438;51.454;6.718;2023-02-15T08:39:06;4.40;99.90
20560;DHT22;10438;51.454;6.718;2023-02-15T08:41:37;4.40;99.90
20560;DHT22;10438;51.454;6.718;2023-02-15T08:44:05;4.50;99.90
20560;DHT22;10438;51.454;6.718;2023-02-15T08:46:34;4.50;99.90
20560;DHT22;10438;51.454;6.718;2023-02-15T08:49:00;4.50;99.90
20560;DHT22;10438;51.454;6.718;2023-02-15T08:51:29;4.60;99.90
20560;DHT22;10438;51.454;6.718;2023-02-15T08:53:56;4.60;99.90
20560;DHT22;10438;51.454;6.718;2023-02-15T08:56:25;4.70;99.90
20560;DHT22;10438;51.454;6.718;2023-02-15T08:58:52;4.80;99.90
20560;DHT22;10438;51.454;6.718;2023-02-15T09:01:20;5.00;99.90
20560;DHT22;10438;51.454;6.718;2023-02-15T09:03:48;5.10;99.90
20560;DHT22;10438;51.454;6.718;2023-02-15T09:06:16;5.30;99.90
20560;DHT22;10438;51.454;6.718;2023-02-15T09:08:42;5.60;99.90
20560;DHT22;10438;51.454;6.718;2023-02-15T09:13:41;5.90;99.90
20560;DHT22;10438;51.454;6.718;2023-02-15T09:16:08;6.10;99.90
20560;DHT22;10438;51.454;6.718;2023-02-15T09:18:37;6.10;99.90
20560;DHT22;10438;51.454;6.718;2023-02-15T09:21:09;6.20;99.90
20560;DHT22;10438;51.454;6.718;2023-02-15T09:23:35;6.30;99.90
20560;DHT22;10438;51.454;6.718;2023-02-15T09:26:06;6.40;99.90
20560;DHT22;10438;51.454;6.718;2023-02-15T09:28:32;6.60;99.90
20560;DHT22;10438;51.454;6.718;2023-02-15T09:31:08;6.60;99.90
20560;DHT22;10438;51.454;6.718;2023-02-15T09:33:35;6.70;99.90
20560;DHT22;10438;51.454;6.718;2023-02-15T09:36:02;7.00;99.90
20560;DHT22;10438;51.454;6.718;2023-02-15T09:38:28;7.40;99.90
20560;DHT22;10438;51.454;6.718;2023-02-15T09:41:08;7.60;99.90
20560;DHT22;10438;51.454;6.718;2023-02-15T09:44:07;7.50;99.90
20560;DHT22;10438;51.454;6.718;2023-02-15T09:49:35;7.80;99.90
20560;DHT22;10438;51.454;6.718;2023-02-15T10:00:39;8.80;99.80
20560;DHT22;10438;51.454;6.718;2023-02-15T10:03:16;9.10;98.30
20560;DHT22;10438;51.454;6.718;2023-02-15T10:06:06;9.20;96.70
20560;DHT22;10438;51.454;6.718;2023-02-15T10:08:53;9.30;95.30
20560;DHT22;10438;51.454;6.718;2023-02-15T10:14:52;9.80;90.70
20560;DHT22;10438;51.454;6.718;2023-02-15T10:26:08;10.50;80.40
20560;DHT22;10438;51.454;6.718;2023-02-15T10:28:53;10.50;76.00
20560;DHT22;10438;51.454;6.718;2023-02-15T10:31:50;10.80;70.20
20560;DHT22;10438;51.454;6.718;2023-02-15T10:34:20;10.80;64.60
20560;DHT22;10438;51.454;6.718;2023-02-15T10:40:21;10.50;56.80
20560;DHT22;10438;51.454;6.718;2023-02-15T10:42:54;10.70;59.10
20560;DHT22;10438;51.454;6.718;2023-02-15T10:51:03;10.70;55.40
20560;DHT22;10438;51.454;6.718;2023-02-15T10:56:33;10.90;52.90
20560;DHT22;10438;51.454;6.718;2023-02-15T11:01:56;11.10;54.20
20560;DHT22;10438;51.454;6.718;2023-02-15T11:07:17;11.40;47.20
20560;DHT22;10438;51.454;6.718;2023-02-15T11:10:23;11.40;42.50
20560;DHT22;10438;51.454;6.718;2023-02-15T11:12:42;11.40;46.50
20560;DHT22;10438;51.454;6.718;2023-02-15T11:17:56;11.60;41.80
20560;DHT22;10438;51.454;6.718;2023-02-15T11:20:36;11.70;44.20
20560;DHT22;10438;51.454;6.718;2023-02-15T11:23:12;11.80;41.80
20560;DHT22;10438;51.454;6.718;2023-02-15T11:25:40;11.80;42.60
20560;DHT22;10438;51.454;6.718;2023-02-15T11:28:17;11.80;41.80
20560;DHT22;10438;51.454;6.718;2023-02-15T11:30:47;11.70;35.40
20560;DHT22;10438;51.454;6.718;2023-02-15T11:33:30;11.50;43.10
20560;DHT22;10438;51.454;6.718;2023-02-15T11:36:24;11.60;38.80
20560;DHT22;10438;51.454;6.718;2023-02-15T11:38:58;11.50;39.70
20560;DHT22;10438;51.454;6.718;2023-02-15T11:41:28;11.60;41.80
20560;DHT22;10438;51.454;6.718;2023-02-15T11:44:10;11.60;42.00
20560;DHT22;10438;51.454;6.718;2023-02-15T11:46:37;11.70;39.30
20560;DHT22;10438;51.454;6.718;2023-02-15T11:49:10;11.70;40.00
20560;DHT22;10438;51.454;6.718;2023-02-15T11:51:45;11.90;40.20
20560;DHT22;10438;51.454;6.718;2023-02-15T11:54:10;12.00;39.10
20560;DHT22;10438;51.454;6.718;2023-02-15T11:56:36;12.10;36.10
20560;DHT22;10438;51.454;6.718;2023-02-15T11:59:09;12.10;32.30
20560;DHT22;10438;51.454;6.718;2023-02-15T12:01:44;12.30;29.50
20560;DHT22;10438;51.454;6.718;2023-02-15T12:04:34;12.40;27.60
20560;DHT22;10438;51.454;6.718;2023-02-15T12:07:13;12.40;27.00
20560;DHT22;10438;51.454;6.718;2023-02-15T12:09:50;12.40;30.10
20560;DHT22;10438;51.454;6.718;2023-02-15T12:12:30;12.50;34.70
20560;DHT22;10438;51.454;6.718;2023-02-15T12:14:58;12.70;26.50
20560;DHT22;10438;51.454;6.718;2023-02-15T12:17:29;12.90;27.40
20560;DHT22;10438;51.454;6.718;2023-02-15T12:19:59;13.10;22.70
20560;DHT22;10438;51.454;6.718;2023-02-15T12:22:29;13.30;16.80
20560;DHT22;10438;51.454;6.718;2023-02-15T12:25:00;13.50;11.90
20560;DHT22;10438;51.454;6.718;2023-02-15T12:27:28;13.80;6.50
20560;DHT22;10438;51.454;6.718;2023-02-15T12:30:07;13.80;9.60
20560;DHT22;10438;51.454;6.718;2023-02-15T12:32:49;14.00;5.00
20560;DHT22;10438;51.454;6.718;2023-02-15T12:35:32;14.10;1.00
20560;DHT22;10438;51.454;6.718;2023-02-15T12:38:03;14.00;1.00
20560;DHT22;10438;51.454;6.718;2023-02-15T12:40:30;14.10;1.00
20560;DHT22;10438;51.454;6.718;2023-02-15T12:42:57;14.30;1.00
20560;DHT22;10438;51.454;6.718;2023-02-15T12:45:32;14.50;1.00
20560;DHT22;10438;51.454;6.718;2023-02-15T12:48:17;14.50;1.00
20560;DHT22;10438;51.454;6.718;2023-02-15T12:50:47;14.50;1.00
20560;DHT22;10438;51.454;6.718;2023-02-15T12:53:21;14.60;1.00
20560;DHT22;10438;51.454;6.718;2023-02-15T12:56:00;14.60;1.00
20560;DHT22;10438;51.454;6.718;2023-02-15T12:58:27;14.50;1.00
20560;DHT22;10438;51.454;6.718;2023-02-15T13:01:04;14.50;1.00
20560;DHT22;10438;51.454;6.718;2023-02-15T13:03:35;14.50;1.00
20560;DHT22;10438;51.454;6.718;2023-02-15T13:06:02;14.50;1.00
20560;DHT22;10438;51.454;6.718;2023-02-15T13:08:35;14.50;1.00
20560;DHT22;10438;51.454;6.718;2023-02-15T13:11:10;14.70;1.00
20560;DHT22;10438;51.454;6.718;2023-02-15T13:13:55;14.80;1.00
20560;DHT22;10438;51.454;6.718;2023-02-15T13:16:32;14.80;1.00
20560;DHT22;10438;51.454;6.718;2023-02-15T13:19:45;14.90;1.00
20560;DHT22;10438;51.454;6.718;2023-02-15T13:21:52;15.10;1.00
20560;DHT22;10438;51.454;6.718;2023-02-15T13:24:41;15.30;1.00
20560;DHT22;10438;51.454;6.718;2023-02-15T13:27:12;15.20;1.00
20560;DHT22;10438;51.454;6.718;2023-02-15T13:29:38;15.00;1.00
20560;DHT22;10438;51.454;6.718;2023-02-15T13:32:30;14.90;1.00
20560;DHT22;10438;51.454;6.718;2023-02-15T13:34:58;14.80;1.00
20560;DHT22;10438;51.454;6.718;2023-02-15T13:40:53;15.00;1.00
20560;DHT22;10438;51.454;6.718;2023-02-15T13:43:50;14.90;1.00
20560;DHT22;10438;51.454;6.718;2023-02-15T13:52:17;14.90;1.00
20560;DHT22;10438;51.454;6.718;2023-02-15T14:11:12;15.30;1.00
20560;DHT22;10438;51.454;6.718;2023-02-15T14:16:48;15.60;1.00
20560;DHT22;10438;51.454;6.718;2023-02-15T14:19:25;15.50;1.00
20560;DHT22;10438;51.454;6.718;2023-02-15T14:22:14;15.40;1.00
20560;DHT22;10438;51.454;6.718;2023-02-15T14:24:46;15.20;1.00
20560;DHT22;10438;51.454;6.718;2023-02-15T14:29:52;15.00;1.00
20560;DHT22;10438;51.454;6.718;2023-02-15T14:32:35;15.00;1.00
20560;DHT22;10438;51.454;6.718;2023-02-15T14:35:03;15.00;1.00
20560;DHT22;10438;51.454;6.718;2023-02-15T14:37:55;14.90;1.00
20560;DHT22;10438;51.454;6.718;2023-02-15T14:41:25;14.90;1.00
20560;DHT22;10438;51.454;6.718;2023-02-15T14:43:49;14.80;1.00
20560;DHT22;10438;51.454;6.718;2023-02-15T14:56:41;14.00;1.00
20560;DHT22;10438;51.454;6.718;2023-02-15T14:59:20;13.90;1.00
20560;DHT22;10438;51.454;6.718;2023-02-15T15:02:09;13.80;1.00
20560;DHT22;10438;51.454;6.718;2023-02-15T15:07:22;13.50;1.00
20560;DHT22;10438;51.454;6.718;2023-02-15T15:09:59;13.40;1.00
20560;DHT22;10438;51.454;6.718;2023-02-15T15:14:53;13.30;3.50
20560;DHT22;10438;51.454;6.718;2023-02-15T15:20:00;13.20;6.10
20560;DHT22;10438;51.454;6.718;2023-02-15T15:22:28;13.10;8.50
20560;DHT22;10438;51.454;6.718;2023-02-15T15:25:07;13.00;11.80
20560;DHT22;10438;51.454;6.718;2023-02-15T15:35:32;12.80;13.50
20560;DHT22;10438;51.454;6.718;2023-02-15T15:41:17;12.70;15.80
20560;DHT22;10438;51.454;6.718;2023-02-15T15:49:24;12.60;19.70
20560;DHT22;10438;51.454;6.718;2023-02-15T15:51:52;12.50;20.90
20560;DHT22;10438;51.454;6.718;2023-02-15T15:54:23;12.50;20.60
20560;DHT22;10438;51.454;6.718;2023-02-15T15:56:53;12.40;19.60
20560;DHT22;10438;51.454;6.718;2023-02-15T15:59:28;12.40;21.50
20560;DHT22;10438;51.454;6.718;2023-02-15T16:01:55;12.30;21.50
20560;DHT22;10438;51.454;6.718;2023-02-15T16:04:25;12.30;22.20
20560;DHT22;10438;51.454;6.718;2023-02-15T16:06:51;12.30;22.60
20560;DHT22;10438;51.454;6.718;2023-02-15T16:09:18;12.20;24.00
20560;DHT22;10438;51.454;6.718;2023-02-15T16:11:47;12.10;29.20
20560;DHT22;10438;51.454;6.718;2023-02-15T16:14:17;12.10;33.90
20560;DHT22;10438;51.454;6.718;2023-02-15T16:16:50;12.00;38.90
20560;DHT22;10438;51.454;6.718;2023-02-15T16:19:28;11.90;42.40
20560;DHT22;10438;51.454;6.718;2023-02-15T16:21:58;11.80;42.90
20560;DHT22;10438;51.454;6.718;2023-02-15T16:27:40;11.60;50.50
20560;DHT22;10438;51.454;6.718;2023-02-15T16:32:55;11.50;54.60
20560;DHT22;10438;51.454;6.718;2023-02-15T16:35:21;11.40;55.80
20560;DHT22;10438;51.454;6.718;2023-02-15T16:37:47;11.40;56.20
20560;DHT22;10438;51.454;6.718;2023-02-15T16:40:30;11.30;58.60
20560;DHT22;10438;51.454;6.718;2023-02-15T16:43:04;11.30;58.80
20560;DHT22;10438;51.454;6.718;2023-02-15T16:45:32;11.30;61.20
20560;DHT22;10438;51.454;6.718;2023-02-15T16:48:02;11.20;65.40
20560;DHT22;10438;51.454;6.718;2023-02-15T16:50:33;11.10;70.50
20560;DHT22;10438;51.454;6.718;2023-02-15T16:53:01;11.00;73.70
20560;DHT22;10438;51.454;6.718;2023-02-15T16:55:30;10.90;79.40
20560;DHT22;10438;51.454;6.718;2023-02-15T16:58:01;10.80;80.30
20560;DHT22;10438;51.454;6.718;2023-02-15T17:00:32;10.70;82.30
20560;DHT22;10438;51.454;6.718;2023-02-15T17:03:00;10.70;83.90
20560;DHT22;10438;51.454;6.718;2023-02-15T17:05:32;10.70;85.20
20560;DHT22;10438;51.454;6.718;2023-02-15T17:08:35;10.60;87.30
20560;DHT22;10438;51.454;6.718;2023-02-15T17:11:16;10.50;90.50
20560;DHT22;10438;51.454;6.718;2023-02-15T17:16:31;10.40;93.00
20560;DHT22;10438;51.454;6.718;2023-02-15T17:19:00;10.40;93.70
20560;DHT22;10438;51.454;6.718;2023-02-15T17:21:31;10.30;94.80
20560;DHT22;10438;51.454;6.718;2023-02-15T17:23:59;10.30;95.80
20560;DHT22;10438;51.454;6.718;2023-02-15T17:26:31;10.20;96.00
20560;DHT22;10438;51.454;6.718;2023-02-15T17:29:26;10.20;96.60
20560;DHT22;10438;51.454;6.718;2023-02-15T17:31:55;10.20;96.90
20560;DHT22;10438;51.454;6.718;2023-02-15T17:34:43;10.20;97.40
20560;DHT22;10438;51.454;6.718;2023-02-15T17:37:23;10.10;98.10
20560;DHT22;10438;51.454;6.718;2023-02-15T17:39:49;10.10;99.00
20560;DHT22;10438;51.454;6.718;2023-02-15T17:42:15;10.00;99.40
20560;DHT22;10438;51.454;6.718;2023-02-15T17:44:40;10.00;99.70
20560;DHT22;10438;51.454;6.718;2023-02-15T17:47:06;10.00;99.90
20560;DHT22;10438;51.454;6.718;2023-02-15T17:49:31;10.00;99.90
20560;DHT22;10438;51.454;6.718;2023-02-15T17:52:00;9.90;99.90
20560;DHT22;10438;51.454;6.718;2023-02-15T17:54:27;9.90;99.90
20560;DHT22;10438;51.454;6.718;2023-02-15T17:57:13;9.90;99.90
20560;DHT22;10438;51.454;6.718;2023-02-15T17:59:38;9.90;99.90
20560;DHT22;10438;51.454;6.718;2023-02-15T18:02:22;9.90;99.90
20560;DHT22;10438;51.454;6.718;2023-02-15T18:05:13;9.90;99.90
20560;DHT22;10438;51.454;6.718;2023-02-15T18:07:58;9.90;99.90
20560;DHT22;10438;51.454;6.718;2023-02-15T18:10:42;9.80;99.90
20560;DHT22;10438;51.454;6.718;2023-02-15T18:13:26;9.80;99.90
20560;DHT22;10438;51.454;6.718;2023-02-15T18:15:52;9.80;99.90
20560;DHT22;10438;51.454;6.718;2023-02-15T18:18:18;9.80;99.90
20560;DHT22;10438;51.454;6.718;2023-02-15T18:20:43;9.90;99.90
20560;DHT22;10438;51.454;6.718;2023-02-15T18:23:13;9.90;99.90
20560;DHT22;10438;51.454;6.718;2023-02-15T18:25:39;9.90;99.20
20560;DHT22;10438;51.454;6.718;2023-02-15T18:28:05;10.00;98.40